Time;durP1;ratioP1;P1;durP2;ratioP2;P2;SDS_P1;SDS_P2;PMS_P1;PMS_P2;Temp;Humidity;BMP_temperature;BMP_pressure;BME280_temperature;BME280_humidity;BME280_pressure;Samples;Min_cycle;Max_cycle;Signal;HPM_P1;HPM_P2
2022/11/26 00:02:36;;;;;;;7.23;3.03;;;7.80;99.90;;;11.13;57.39;98523.50;5001749;28;20321;-61
2022/11/26 00:05:05;;;;;;;17.33;3.27;;;7.80;99.90;;;11.16;57.87;98526.72;5017536;28;20039;-60
2022/11/26 00:07:33;;;;;;;9.60;3.60;;;7.90;99.90;;;11.14;58.03;98526.00;5001704;28;20057;-60
2022/11/26 00:10:01;;;;;;;9.80;3.30;;;7.80;99.90;;;11.14;57.60;98530.50;5002772;28;20050;-60
2022/11/26 00:12:33;;;;;;;7.13;2.77;;;7.80;99.90;;;11.15;57.64;98533.03;5001579;28;20296;-60
2022/11/26 00:15:22;;;;;;;11.63;4.00;;;7.80;99.90;;;11.15;58.02;98534.88;5001644;28;20374;-61
2022/11/26 00:17:52;;;;;;;8.00;3.00;;;7.90;99.90;;;11.17;57.62;98543.56;5002578;28;20312;-60
2022/11/26 00:20:29;;;;;;;9.77;3.00;;;7.80;99.90;;;11.20;57.77;98543.25;5002673;28;20038;-60
2022/11/26 00:23:01;;;;;;;5.50;2.40;;;7.80;99.90;;;11.23;57.76;98545.66;4985716;28;20054;-61
2022/11/26 00:26:11;;;;;;;11.77;3.37;;;7.90;99.90;;;11.21;57.66;98552.94;5001393;28;20057;-61
2022/11/26 00:28:48;;;;;;;8.27;2.93;;;7.90;99.90;;;11.25;57.34;98557.00;5002572;28;20057;-60
2022/11/26 00:31:16;;;;;;;9.43;3.60;;;7.90;99.90;;;11.23;57.68;98557.16;5001309;28;20046;-61
2022/11/26 00:33:44;;;;;;;12.10;3.53;;;7.90;99.90;;;11.25;57.54;98557.00;5016656;28;20058;-60
2022/11/26 00:36:29;;;;;;;15.10;3.77;;;7.90;99.90;;;11.28;57.47;98567.38;5002051;28;20046;-61
2022/11/26 00:39:10;;;;;;;7.37;2.73;;;7.90;99.90;;;11.28;57.63;98564.69;5002704;28;20057;-60
2022/11/26 00:41:38;;;;;;;8.87;2.97;;;7.80;99.90;;;11.28;57.58;98556.69;5001507;28;20060;-60
2022/11/26 00:44:18;;;;;;;10.00;3.87;;;7.80;99.90;;;11.27;57.88;98562.19;5000730;28;20047;-60
2022/11/26 00:46:48;;;;;;;7.13;2.93;;;7.90;99.90;;;11.27;57.37;98571.03;4999135;28;20049;-61
2022/11/26 00:49:17;;;;;;;8.47;2.80;;;7.80;99.90;;;11.25;57.52;98570.34;5001387;28;20340;-60
2022/11/26 00:51:46;;;;;;;12.03;3.53;;;7.80;99.90;;;11.22;57.69;98583.94;5002188;28;20058;-61
2022/11/26 00:54:17;;;;;;;11.67;3.10;;;7.80;99.90;;;11.19;57.86;98582.41;5001772;28;20050;-61
2022/11/26 00:56:47;;;;;;;10.27;3.37;;;7.80;99.90;;;11.19;57.68;98579.75;5001130;28;20046;-61
2022/11/26 00:59:21;;;;;;;7.20;3.43;;;7.80;99.90;;;11.09;58.23;98588.72;5001196;28;20046;-60
2022/11/26 01:01:49;;;;;;;11.02;3.38;;;7.70;99.90;;;10.98;58.46;98587.06;5001620;28;20047;-55
2022/11/26 01:04:17;;;;;;;7.30;2.50;;;7.60;99.90;;;11.03;58.43;98596.31;5001681;28;20053;-53
2022/11/26 01:06:45;;;;;;;6.83;2.90;;;7.60;99.90;;;11.02;58.26;98602.59;5001991;28;20053;-54
2022/11/26 01:09:20;;;;;;;7.13;2.73;;;7.60;99.90;;;10.92;58.79;98603.59;5000952;28;20050;-54
2022/11/26 01:11:48;;;;;;;5.63;3.00;;;7.60;99.90;;;10.89;58.59;98604.72;5001086;28;20072;-53
2022/11/26 01:14:22;;;;;;;7.97;3.07;;;7.60;99.90;;;10.85;58.90;98608.63;5001726;28;20050;-53
2022/11/26 01:16:51;;;;;;;8.40;2.93;;;7.50;99.90;;;10.86;58.80;98610.34;5002037;28;20332;-55
2022/11/26 01:19:19;;;;;;;6.93;2.70;;;7.60;99.90;;;10.75;58.93;98613.97;5000797;28;20114;-54
2022/11/26 01:21:48;;;;;;;7.77;3.10;;;7.50;99.90;;;10.73;58.95;98621.25;5002166;28;20366;-54
2022/11/26 01:24:15;;;;;;;9.97;3.00;;;7.50;99.90;;;10.70;59.29;98624.19;5001590;28;20053;-52
2022/11/26 01:26:44;;;;;;;8.13;3.20;;;7.50;99.90;;;10.69;59.53;98627.00;5002121;28;20206;-54
2022/11/26 01:29:18;;;;;;;7.20;3.30;;;7.40;99.90;;;10.72;58.88;98630.22;5001843;28;20054;-53
2022/11/26 01:31:46;;;;;;;9.60;3.83;;;7.40;99.90;;;10.72;59.02;98627.56;5001015;28;20061;-52
2022/11/26 01:34:14;;;;;;;9.27;3.00;;;7.40;99.90;;;10.65;59.70;98634.41;5001430;28;20060;-53
2022/11/26 01:36:43;;;;;;;10.60;3.27;;;7.40;99.90;;;10.61;59.82;98635.66;5001469;28;20257;-52
2022/11/26 01:39:20;;;;;;;10.40;2.70;;;7.40;99.90;;;10.62;59.73;98634.69;5001845;28;20239;-54
2022/11/26 01:42:21;;;;;;;7.23;3.07;;;7.40;99.90;;;10.61;59.18;98636.50;5001900;28;20052;-52
2022/11/26 01:44:49;;;;;;;6.00;2.70;;;7.40;99.90;;;10.56;59.53;98646.72;5001555;28;20046;-53
2022/11/26 01:47:29;;;;;;;5.40;3.33;;;7.40;99.90;;;10.41;60.02;98646.28;5004943;28;20054;-52
2022/11/26 01:51:04;;;;;;;10.97;3.73;;;7.30;99.90;;;10.43;60.41;98649.66;5005407;28;20053;-55
2022/11/26 01:53:39;;;;;;;10.57;3.50;;;7.30;99.90;;;10.61;59.58;98652.47;5001305;28;20364;-54
2022/11/26 01:56:50;;;;;;;14.37;3.90;;;7.40;99.90;;;10.56;59.85;98653.88;5004917;28;20050;-54
2022/11/26 01:59:31;;;;;;;7.07;2.97;;;7.40;99.90;;;10.58;60.02;98647.41;5005199;28;20066;-54
2022/11/26 02:02:02;;;;;;;9.97;2.97;;;7.40;99.90;;;10.47;60.18;98650.22;5003511;28;20050;-52
2022/11/26 02:04:45;;;;;;;7.57;2.97;;;7.40;99.90;;;10.42;59.79;98655.94;5003539;28;20065;-55
2022/11/26 02:07:13;;;;;;;8.03;3.60;;;7.40;99.90;;;10.41;60.11;98659.59;5005301;28;20066;-55
2022/11/26 02:09:41;;;;;;;8.10;3.70;;;7.30;99.90;;;10.49;60.37;98655.38;5005232;28;20374;-54
2022/11/26 02:12:09;;;;;;;9.30;4.07;;;7.30;99.90;;;10.43;60.44;98654.97;5003774;28;20042;-53
2022/11/26 02:14:42;;;;;;;7.10;3.50;;;7.40;99.90;;;10.23;61.16;98663.81;5003335;28;20054;-55
2022/11/26 02:17:19;;;;;;;14.57;3.80;;;7.30;99.90;;;10.25;60.90;98662.72;5003802;28;20052;-54
2022/11/26 02:20:32;;;;;;;8.80;3.40;;;7.30;99.90;;;10.37;60.82;98667.97;5003886;28;20066;-55
2022/11/26 02:23:23;;;;;;;8.47;3.30;;;7.30;99.90;;;10.18;60.87;98671.38;5004893;28;20050;-53
2022/11/26 02:26:09;;;;;;;7.73;2.90;;;7.30;99.90;;;10.37;60.63;98670.63;5004102;28;20259;-51
2022/11/26 02:28:51;;;;;;;11.37;3.73;;;7.30;99.90;;;10.40;60.30;98684.50;5003481;28;20201;-54
2022/11/26 02:31:43;;;;;;;7.13;3.57;;;7.30;99.90;;;10.44;60.41;98687.75;5003522;28;20244;-53
2022/11/26 02:34:19;;;;;;;10.93;4.13;;;7.30;99.90;;;10.34;60.45;98690.38;5003720;28;20058;-60
2022/11/26 02:37:04;;;;;;;8.10;4.50;;;7.20;99.90;;;10.53;59.88;98691.44;5005292;28;20054;-60
2022/11/26 02:39:32;;;;;;;6.90;3.60;;;7.40;99.90;;;10.51;60.53;98693.38;5003514;28;20060;-60
2022/11/26 02:42:02;;;;;;;9.13;3.53;;;7.40;99.90;;;10.34;60.51;98703.69;5004068;28;20046;-61
2022/11/26 02:44:44;;;;;;;7.27;3.83;;;7.30;99.90;;;10.40;60.58;98707.63;5004089;28;20320;-61
2022/11/26 02:47:16;;;;;;;9.70;3.90;;;7.30;99.90;;;10.47;60.48;98713.25;5004420;28;20089;-60
2022/11/26 02:49:48;;;;;;;15.60;3.77;;;7.30;99.90;;;10.24;61.04;98718.75;5003009;28;20042;-61
2022/11/26 02:52:18;;;;;;;12.20;4.33;;;7.30;99.90;;;10.24;61.62;98724.91;5003020;28;20054;-61
2022/11/26 02:54:48;;;;;;;9.13;3.60;;;7.30;99.90;;;10.25;61.02;98729.25;5002933;28;20049;-61
2022/11/26 02:57:20;;;;;;;8.73;3.87;;;7.20;99.90;;;10.42;60.86;98727.81;5002086;28;20050;-60
2022/11/26 02:59:48;;;;;;;8.73;3.53;;;7.30;99.90;;;10.51;60.17;98734.16;5003242;28;20049;-60
2022/11/26 03:02:27;;;;;;;9.90;3.70;;;7.30;99.90;;;10.60;59.93;98738.69;5003373;28;20053;-60
2022/11/26 03:04:59;;;;;;;8.63;4.00;;;7.30;99.90;;;10.49;60.56;98740.56;5003375;28;20241;-60
2022/11/26 03:07:31;;;;;;;14.57;4.40;;;7.30;99.90;;;10.61;60.38;98743.03;5002821;28;20052;-60
2022/11/26 03:10:00;;;;;;;9.77;3.90;;;7.40;99.90;;;10.64;60.04;98739.25;5003015;28;20056;-60
2022/11/26 03:12:29;;;;;;;10.67;4.97;;;7.40;99.90;;;10.64;60.12;98740.09;5003801;28;20054;-61
2022/11/26 03:14:57;;;;;;;6.90;3.67;;;7.40;99.90;;;10.54;60.38;98739.19;5003312;28;20057;-61
2022/11/26 03:17:25;;;;;;;13.00;3.90;;;7.30;99.90;;;10.66;59.93;98742.59;5003367;28;20358;-61
2022/11/26 03:19:52;;;;;;;16.97;4.17;;;7.40;99.90;;;10.67;60.00;98740.81;5002923;28;20050;-61
2022/11/26 03:22:20;;;;;;;11.23;3.93;;;7.30;99.90;;;10.49;60.02;98738.78;5003567;28;20039;-61
2022/11/26 03:24:48;;;;;;;9.83;3.50;;;7.20;99.90;;;10.53;60.10;98744.69;5003211;28;20042;-61
2022/11/26 03:27:17;;;;;;;13.07;5.67;;;7.30;99.90;;;10.51;60.24;98736.00;5002489;28;20042;-61
2022/11/26 03:29:44;;;;;;;18.53;4.63;;;7.20;99.90;;;10.53;60.15;98742.03;5002386;28;20050;-61
2022/11/26 03:32:12;;;;;;;12.60;4.27;;;7.20;99.90;;;10.65;59.74;98751.59;5001965;28;20042;-61
2022/11/26 03:34:41;;;;;;;12.10;4.77;;;7.30;99.90;;;10.63;59.88;98750.88;5002985;28;20048;-61
2022/11/26 03:37:09;;;;;;;10.10;4.13;;;7.30;99.90;;;10.49;60.53;98757.41;5002241;28;20039;-61
2022/11/26 03:39:37;;;;;;;9.00;4.10;;;7.30;99.90;;;10.40;60.58;98758.22;5002147;28;20218;-60
2022/11/26 03:42:05;;;;;;;10.17;4.07;;;7.20;99.90;;;10.46;60.51;98764.81;5018694;28;20072;-61
2022/11/26 03:44:33;;;;;;;11.70;4.50;;;7.20;99.90;;;10.57;60.02;98757.59;5001808;28;20042;-60
2022/11/26 03:47:01;;;;;;;12.07;4.20;;;7.30;99.90;;;10.56;60.42;98760.38;5001278;28;20060;-61
2022/11/26 03:49:29;;;;;;;14.10;4.67;;;7.30;99.90;;;10.54;60.49;98757.84;5001280;28;20058;-61
2022/11/26 03:51:57;;;;;;;11.20;3.80;;;7.30;99.90;;;10.57;60.34;98765.56;5003147;28;20056;-61
2022/11/26 03:54:25;;;;;;;10.80;4.43;;;7.30;99.90;;;10.50;60.40;98767.06;5001553;28;20058;-60
2022/11/26 03:56:53;;;;;;;10.23;3.90;;;7.30;99.90;;;10.48;60.55;98768.19;5003080;28;20333;-61
2022/11/26 03:59:20;;;;;;;9.27;4.23;;;7.20;99.90;;;10.46;60.74;98767.50;5003008;28;20034;-61
2022/11/26 04:01:48;;;;;;;9.90;3.90;;;7.20;99.90;;;10.45;60.62;98771.97;5001834;28;20046;-60
2022/11/26 04:04:16;;;;;;;10.83;4.83;;;7.20;99.90;;;10.51;60.60;98770.59;5002760;28;20046;-61
2022/11/26 04:06:45;;;;;;;8.83;4.90;;;7.20;99.90;;;10.59;60.65;98779.59;5002433;28;20050;-61
2022/11/26 04:09:12;;;;;;;12.83;4.43;;;7.30;99.90;;;10.63;60.54;98782.84;5002624;28;20057;-61
2022/11/26 04:11:40;;;;;;;15.97;5.63;;;7.30;99.90;;;10.58;60.46;98785.06;5002797;28;20060;-60
2022/11/26 04:14:08;;;;;;;10.50;4.37;;;7.20;99.90;;;10.53;60.42;98774.81;5002587;28;20261;-61
2022/11/26 04:16:36;;;;;;;12.00;5.30;;;7.20;99.90;;;10.54;60.53;98770.31;5002723;28;20054;-60
2022/11/26 04:19:04;;;;;;;12.00;5.73;;;7.20;99.90;;;10.60;60.42;98767.97;5001825;28;20046;-61
2022/11/26 04:21:32;;;;;;;13.47;4.93;;;7.30;99.90;;;10.57;60.25;98770.91;5002252;28;20057;-60
2022/11/26 04:24:00;;;;;;;15.27;6.13;;;7.20;99.90;;;10.55;60.03;98772.03;5002655;28;20276;-60
2022/11/26 04:26:27;;;;;;;17.60;5.83;;;7.20;99.90;;;10.47;60.38;98774.47;5002908;28;20054;-61
2022/11/26 04:28:55;;;;;;;14.97;6.83;;;7.10;99.90;;;10.35;60.68;98773.72;5017914;28;20069;-60
2022/11/26 04:31:23;;;;;;;14.00;5.40;;;7.00;99.90;;;10.38;60.86;98771.66;5002541;28;20057;-61
2022/11/26 04:33:51;;;;;;;15.50;7.40;;;7.00;99.90;;;10.32;60.63;98772.19;5001955;28;20084;-61
2022/11/26 04:36:19;;;;;;;11.73;6.67;;;7.00;99.90;;;10.34;60.75;98761.41;5002283;28;20044;-60
2022/11/26 04:38:47;;;;;;;15.17;6.37;;;7.00;99.90;;;10.40;60.62;98769.69;5001405;28;20046;-61
2022/11/26 04:41:14;;;;;;;13.37;5.87;;;7.10;99.90;;;10.44;60.58;98770.28;5002111;28;20240;-61
2022/11/26 04:43:42;;;;;;;12.33;6.20;;;7.10;99.90;;;10.46;60.18;98773.66;5002028;28;20042;-60
2022/11/26 04:46:10;;;;;;;12.43;5.90;;;7.10;99.90;;;10.48;59.98;98774.34;5002338;28;20042;-61
2022/11/26 04:48:38;;;;;;;12.57;5.33;;;7.20;99.90;;;10.47;59.87;98771.81;5001990;28;20049;-61
2022/11/26 04:51:06;;;;;;;17.47;7.13;;;7.10;99.90;;;10.42;59.87;98777.56;5017273;28;20050;-61
2022/11/26 04:53:34;;;;;;;17.73;7.87;;;7.10;99.90;;;10.34;60.10;98770.22;5001879;28;20241;-61
2022/11/26 04:56:02;;;;;;;15.30;6.37;;;7.00;99.90;;;10.24;60.25;98771.97;5001001;28;20046;-61
2022/11/26 04:58:29;;;;;;;17.00;6.57;;;6.80;99.90;;;10.02;60.79;98773.81;5002156;28;20252;-61
2022/11/26 05:00:57;;;;;;;19.63;7.00;;;6.70;99.90;;;9.76;61.34;98780.47;5001545;28;20058;-61
2022/11/26 05:03:25;;;;;;;15.57;6.67;;;6.60;99.90;;;9.89;60.98;98773.16;5001326;28;20054;-61
2022/11/26 05:05:53;;;;;;;24.77;9.07;;;6.60;99.90;;;9.79;61.32;98780.19;5000754;28;20046;-61
2022/11/26 05:08:21;;;;;;;16.90;6.33;;;6.60;99.90;;;9.88;60.73;98779.44;5002014;28;20042;-61
2022/11/26 05:10:54;;;;;;;22.10;7.63;;;6.60;99.90;;;9.93;60.18;98771.91;5002226;28;20042;-61
2022/11/26 05:13:21;;;;;;;18.93;7.47;;;6.60;99.90;;;9.94;60.14;98778.91;5002106;28;20058;-61
2022/11/26 05:15:49;;;;;;;18.30;6.47;;;6.60;99.90;;;9.94;60.08;98784.22;5002114;28;20048;-60
2022/11/26 05:18:17;;;;;;;14.60;6.73;;;6.60;99.90;;;9.93;59.92;98785.22;5000713;28;20065;-61
2022/11/26 05:20:45;;;;;;;15.87;5.90;;;6.60;99.90;;;9.91;59.85;98781.00;5001986;28;20333;-52
2022/11/26 05:23:13;;;;;;;14.80;7.70;;;6.60;99.90;;;9.87;59.82;98788.41;5004326;28;20050;-54
2022/11/26 05:25:41;;;;;;;14.73;6.57;;;6.50;99.90;;;9.81;60.15;98783.59;5005463;28;20048;-53
2022/11/26 05:28:09;;;;;;;16.40;6.43;;;6.40;99.90;;;9.78;60.01;98791.81;5005811;28;20050;-55
2022/11/26 05:30:37;;;;;;;15.63;6.37;;;6.40;99.90;;;9.75;60.21;98792.06;5004650;28;20054;-51
2022/11/26 05:33:05;;;;;;;10.23;6.03;;;6.40;99.90;;;9.74;59.84;98795.72;5005993;28;20351;-54
2022/11/26 05:35:32;;;;;;;12.27;5.37;;;6.40;99.90;;;9.69;60.25;98789.91;5005653;28;20050;-51
2022/11/26 05:38:00;;;;;;;14.43;6.37;;;6.40;99.90;;;9.59;60.12;98795.16;5005271;28;20050;-52
2022/11/26 05:40:28;;;;;;;12.57;6.10;;;6.30;99.90;;;9.63;60.34;98788.63;5004301;28;20054;-54
2022/11/26 05:42:56;;;;;;;13.73;6.00;;;6.30;99.90;;;9.58;60.52;98804.13;5020206;28;20054;-54
2022/11/26 05:45:23;;;;;;;12.67;6.63;;;6.30;99.90;;;9.56;60.28;98803.41;5005256;28;20233;-53
2022/11/26 05:47:51;;;;;;;15.80;6.50;;;6.30;99.90;;;9.54;60.51;98800.00;4988637;28;20050;-54
2022/11/26 05:50:19;;;;;;;12.80;6.00;;;6.30;99.90;;;9.52;60.35;98805.47;5004398;28;20057;-54
2022/11/26 05:52:52;;;;;;;18.52;6.75;;;6.20;99.90;;;9.41;60.62;98811.66;5005366;28;20064;-52
2022/11/26 05:55:20;;;;;;;18.63;7.93;;;6.20;99.90;;;9.37;60.95;98820.00;5005030;28;20054;-52
2022/11/26 05:57:48;;;;;;;11.83;5.90;;;6.10;99.90;;;9.26;61.45;98819.03;4988363;28;20054;-55
2022/11/26 06:00:16;;;;;;;14.23;6.27;;;6.00;99.90;;;9.21;61.28;98818.59;5005100;28;20329;-55
2022/11/26 06:02:44;;;;;;;16.80;5.43;;;6.00;99.90;;;9.29;61.29;98817.97;5003921;28;20148;-52
2022/11/26 06:05:12;;;;;;;16.77;7.80;;;6.00;99.90;;;9.29;60.94;98820.63;5004584;28;20053;-54
2022/11/26 06:07:40;;;;;;;14.20;5.77;;;6.00;99.90;;;9.33;60.95;98823.88;5005297;28;20054;-55
2022/11/26 06:10:12;;;;;;;12.17;6.57;;;6.00;99.90;;;9.26;60.99;98818.22;5003934;28;20054;-51
2022/11/26 06:12:40;;;;;;;19.87;6.87;;;6.00;99.90;;;9.33;60.91;98818.56;5003915;28;20080;-52
2022/11/26 06:15:08;;;;;;;12.07;6.30;;;6.00;99.90;;;9.34;60.46;98823.75;5004599;28;20056;-55
2022/11/26 06:17:36;;;;;;;13.07;6.27;;;6.10;99.90;;;9.29;60.82;98817.13;5003545;28;20060;-52
2022/11/26 06:20:05;;;;;;;14.50;6.77;;;6.00;99.90;;;9.25;60.64;98820.03;5004776;28;20043;-52
2022/11/26 06:22:38;;;;;;;13.83;7.23;;;5.90;99.90;;;9.20;60.70;98824.84;5004861;28;20240;-55
2022/11/26 06:25:08;;;;;;;12.27;6.23;;;5.80;99.90;;;9.23;60.48;98827.28;5004369;28;20241;-55
2022/11/26 06:27:37;;;;;;;14.83;6.73;;;5.90;99.90;;;9.21;60.84;98831.03;5004699;28;20444;-55
2022/11/26 06:30:07;;;;;;;15.83;7.47;;;5.90;99.90;;;9.14;60.73;98830.69;5003625;28;20046;-54
2022/11/26 06:32:36;;;;;;;17.60;6.13;;;5.80;99.90;;;9.12;60.86;98834.44;5003318;28;20158;-53
2022/11/26 06:35:04;;;;;;;15.87;6.90;;;5.80;99.90;;;9.14;60.57;98836.00;5004189;28;20049;-55
2022/11/26 06:37:32;;;;;;;13.63;5.83;;;5.80;99.90;;;9.17;60.49;98851.69;5004845;28;20233;-54
2022/11/26 06:40:00;;;;;;;17.40;5.97;;;5.80;99.90;;;9.15;60.56;98852.75;5004428;28;20042;-55
2022/11/26 06:42:28;;;;;;;13.73;6.40;;;5.80;99.90;;;9.12;60.49;98853.88;5003259;28;20048;-52
2022/11/26 06:44:56;;;;;;;17.37;6.60;;;5.80;99.90;;;9.14;60.73;98856.41;5003794;28;20050;-52
2022/11/26 06:47:27;;;;;;;11.70;6.00;;;5.90;99.90;;;9.16;60.60;98865.94;5003157;28;20052;-55
2022/11/26 06:49:54;;;;;;;16.10;6.33;;;5.90;99.90;;;9.11;60.71;98869.91;5000758;28;20248;-52
2022/11/26 06:52:22;;;;;;;13.10;6.10;;;5.80;99.90;;;9.16;60.55;98867.75;5004235;28;20038;-55
2022/11/26 06:54:50;;;;;;;11.07;6.23;;;5.90;99.90;;;9.19;60.46;98873.69;5002830;28;20046;-53
2022/11/26 06:57:18;;;;;;;15.70;6.83;;;5.90;99.90;;;9.22;60.30;98877.88;5004644;28;20244;-51
2022/11/26 06:59:45;;;;;;;15.77;7.03;;;5.90;99.90;;;9.23;60.34;98884.91;5003854;28;20038;-52
2022/11/26 07:02:13;;;;;;;13.63;6.90;;;5.90;99.90;;;9.25;60.04;98888.28;5002412;28;20193;-56
2022/11/26 07:04:41;;;;;;;11.33;7.17;;;5.90;99.90;;;9.25;59.89;98889.13;5002173;28;20241;-53
2022/11/26 07:07:09;;;;;;;11.97;7.30;;;5.90;99.90;;;9.22;59.90;98894.66;5003891;28;20042;-51
2022/11/26 07:09:39;;;;;;;15.77;8.73;;;5.90;99.90;;;9.20;59.81;98898.44;5003983;28;20046;-54
2022/11/26 07:12:07;;;;;;;20.37;6.53;;;5.80;99.90;;;9.16;59.90;98907.59;5004001;28;20393;-54
2022/11/26 07:14:34;;;;;;;11.67;6.50;;;5.80;99.90;;;9.14;59.69;98907.72;5003177;28;20052;-51
2022/11/26 07:17:02;;;;;;;9.90;5.30;;;5.70;99.90;;;9.11;59.67;98918.63;5004183;28;20084;-54
2022/11/26 07:19:30;;;;;;;28.43;15.77;;;5.70;99.90;;;9.10;59.65;98918.72;5003707;28;20046;-51
2022/11/26 07:21:58;;;;;;;41.13;22.80;;;5.70;99.90;;;9.07;59.56;98923.31;5002587;28;20049;-54
2022/11/26 07:24:26;;;;;;;88.67;43.27;;;5.70;99.90;;;9.05;59.59;98919.06;5002602;28;20054;-54
2022/11/26 07:26:55;;;;;;;54.37;29.23;;;5.60;99.90;;;9.02;59.49;98930.78;5002509;28;20052;-56
2022/11/26 07:29:23;;;;;;;58.03;29.73;;;5.60;99.90;;;9.02;59.49;98936.09;5002450;28;20052;-53
2022/11/26 07:31:51;;;;;;;39.57;21.20;;;5.60;99.90;;;9.01;59.61;98936.22;5002879;28;20050;-51
2022/11/26 07:34:19;;;;;;;40.73;20.97;;;5.60;99.90;;;9.00;59.44;98943.34;5018086;28;20049;-52
2022/11/26 07:36:47;;;;;;;33.90;20.03;;;5.60;99.90;;;8.96;59.67;98941.91;5002165;28;20248;-54
2022/11/26 07:39:14;;;;;;;30.73;13.67;;;5.50;99.90;;;8.94;59.48;98953.63;5001502;28;20050;-51
2022/11/26 07:41:42;;;;;;;19.03;11.47;;;5.50;99.90;;;8.93;59.61;98939.47;5003357;28;20105;-52
2022/11/26 07:44:14;;;;;;;15.53;8.73;;;5.50;99.90;;;8.91;59.61;98941.41;5002035;28;20046;-55
2022/11/26 07:46:41;;;;;;;11.17;5.67;;;5.50;99.90;;;8.91;59.78;98945.88;5003314;28;20046;-51
2022/11/26 07:49:10;;;;;;;19.83;13.17;;;5.50;99.90;;;8.90;59.81;98945.03;5002331;28;20493;-52
2022/11/26 07:51:38;;;;;;;19.00;9.27;;;5.50;99.90;;;8.90;59.44;98955.66;5003175;28;20050;-55
2022/11/26 07:54:07;;;;;;;21.70;14.57;;;5.50;99.90;;;8.88;59.73;98952.28;5001439;28;20046;-55
2022/11/26 07:56:35;;;;;;;20.90;12.57;;;5.50;99.90;;;8.86;59.96;98959.53;5002024;28;20058;-51
2022/11/26 07:59:03;;;;;;;24.70;13.37;;;5.50;99.90;;;8.90;60.02;98963.63;5002494;28;20065;-54
2022/11/26 08:01:31;;;;;;;19.37;12.17;;;5.60;99.90;;;8.93;60.12;98962.53;5002245;28;20231;-55
2022/11/26 08:04:04;;;;;;;26.50;15.30;;;5.60;99.90;;;8.98;60.15;98966.53;5001419;28;20352;-54
2022/11/26 08:06:32;;;;;;;23.63;14.80;;;5.70;99.90;;;9.03;60.17;98967.03;5001808;28;20046;-53
2022/11/26 08:09:01;;;;;;;15.67;8.80;;;5.80;99.90;;;9.06;60.30;98968.59;5001206;28;20046;-53
2022/11/26 08:11:32;;;;;;;21.63;11.20;;;5.80;99.90;;;9.11;60.26;98969.09;5001792;28;20058;-53
2022/11/26 08:14:09;;;;;;;22.63;10.60;;;5.90;99.90;;;9.15;60.13;98967.88;5002372;28;20046;-54
2022/11/26 08:16:38;;;;;;;12.57;8.20;;;5.90;99.90;;;9.18;59.98;98959.66;5001799;28;20379;-53
2022/11/26 08:19:11;;;;;;;23.23;9.00;;;6.00;99.90;;;9.24;60.03;98967.13;5002638;28;20256;-51
2022/11/26 08:21:40;;;;;;;11.10;6.50;;;6.00;99.90;;;9.29;60.19;98963.28;5001583;28;20341;-54
2022/11/26 08:24:14;;;;;;;12.87;7.10;;;6.10;99.90;;;9.33;59.75;98973.56;5002483;28;20052;-52
2022/11/26 08:26:43;;;;;;;14.53;7.10;;;6.10;99.90;;;9.36;60.09;98967.97;5001482;28;20048;-53
2022/11/26 08:29:13;;;;;;;11.20;7.00;;;6.10;99.90;;;9.38;60.05;98974.06;5001849;28;20050;-54
2022/11/26 08:31:42;;;;;;;12.93;6.83;;;6.20;99.90;;;9.42;60.19;98975.50;5001643;28;20248;-55
2022/11/26 08:34:15;;;;;;;11.63;7.57;;;6.20;99.90;;;9.48;59.82;98979.47;5001963;28;20062;-53
2022/11/26 08:36:44;;;;;;;13.07;8.23;;;6.30;99.90;;;9.51;59.88;98987.19;5002341;28;20054;-51
2022/11/26 08:39:17;;;;;;;16.67;9.67;;;6.30;99.90;;;9.49;60.33;98986.47;5001087;28;20076;-54
2022/11/26 08:41:45;;;;;;;19.27;8.73;;;6.30;99.90;;;9.48;60.20;98984.78;5002548;28;20038;-53
2022/11/26 08:44:19;;;;;;;13.25;7.75;;;6.30;99.90;;;9.42;60.27;98986.13;5002044;28;20064;-56
2022/11/26 08:46:47;;;;;;;15.10;8.37;;;6.20;99.90;;;9.43;60.38;98990.47;5002457;28;20052;-55
2022/11/26 08:49:15;;;;;;;13.93;6.80;;;6.20;99.90;;;9.45;60.30;98988.53;5001144;28;20064;-54
2022/11/26 08:51:44;;;;;;;16.90;6.67;;;6.20;99.90;;;9.37;60.67;98980.31;5001519;28;20054;-55
2022/11/26 08:54:11;;;;;;;13.93;7.13;;;6.20;99.90;;;9.45;60.25;98991.19;5000766;28;20054;-54
2022/11/26 08:56:39;;;;;;;12.40;8.60;;;6.20;99.90;;;9.53;60.54;98984.41;5003844;28;20054;-55
2022/11/26 08:59:07;;;;;;;15.03;6.90;;;6.30;99.90;;;9.59;60.41;98984.75;5006449;28;20050;-54
2022/11/26 09:01:35;;;;;;;16.27;7.37;;;6.40;99.90;;;9.66;60.60;98985.13;5005779;28;20038;-52
2022/11/26 09:04:04;;;;;;;12.53;6.47;;;6.50;99.90;;;9.73;60.36;98983.69;5005947;28;20046;-54
2022/11/26 09:06:37;;;;;;;18.73;6.80;;;6.60;99.90;;;9.79;60.34;98982.31;4989203;28;20050;-54
2022/11/26 09:09:11;;;;;;;14.00;6.93;;;6.60;99.90;;;9.83;60.22;98979.31;5021047;28;20061;-55
2022/11/26 09:11:48;;;;;;;13.70;6.17;;;6.70;99.90;;;9.90;60.23;98979.66;5005171;28;20060;-53
2022/11/26 09:14:23;;;;;;;15.17;6.87;;;6.70;99.90;;;9.94;60.41;98988.22;5005822;28;20169;-53
2022/11/26 09:16:54;;;;;;;10.23;6.63;;;6.80;99.90;;;9.97;60.21;99001.28;5006201;28;20121;-54
2022/11/26 09:19:23;;;;;;;11.40;6.63;;;6.80;99.90;;;9.99;60.50;98991.38;5005290;28;20046;-55
2022/11/26 09:21:51;;;;;;;9.90;6.10;;;6.80;99.90;;;10.03;60.19;99000.78;5004102;28;20054;-54
2022/11/26 09:24:20;;;;;;;14.47;5.83;;;6.90;99.90;;;10.09;60.07;99010.09;5005438;28;20359;-54
2022/11/26 09:26:48;;;;;;;11.53;5.93;;;6.90;99.90;;;10.11;59.93;99000.16;5004651;28;20046;-55
2022/11/26 09:29:19;;;;;;;12.77;6.27;;;7.00;99.90;;;10.11;60.34;99006.31;5003999;28;20366;-56
2022/11/26 09:31:49;;;;;;;12.23;5.67;;;7.00;99.90;;;10.14;59.92;99006.09;5004715;28;20050;-51
2022/11/26 09:34:37;;;;;;;12.57;6.47;;;7.10;99.90;;;10.23;59.88;99017.78;5004435;28;20074;-50
2022/11/26 09:37:05;;;;;;;12.53;6.83;;;7.10;99.90;;;10.25;59.94;99015.84;5005451;28;20057;-54
2022/11/26 09:39:33;;;;;;;14.13;6.17;;;7.10;99.90;;;10.30;59.49;99023.47;5004634;28;20046;-54
2022/11/26 09:42:20;;;;;;;10.07;5.90;;;7.10;99.90;;;10.30;59.69;99020.81;5005456;28;20042;-55
2022/11/26 09:45:17;;;;;;;13.00;5.33;;;7.10;99.90;;;10.32;59.85;99011.75;5004285;28;20053;-54
2022/11/26 09:47:50;;;;;;;14.50;5.47;;;7.10;99.90;;;10.35;59.36;99019.50;5005810;28;20061;-56
2022/11/26 09:50:43;;;;;;;13.13;5.45;;;7.10;99.90;;;10.36;59.56;99009.69;5001258;28;20054;-53
2022/11/26 09:53:24;;;;;;;8.30;5.90;;;7.10;99.90;;;10.39;59.47;99007.63;5004590;28;20244;-54
2022/11/26 09:55:55;;;;;;;12.47;6.17;;;7.20;99.90;;;10.42;59.71;99001.19;5003919;28;20046;-56
2022/11/26 09:58:33;;;;;;;12.77;5.20;;;7.20;99.90;;;10.44;59.80;98999.22;5005487;28;20056;-55
2022/11/26 10:01:04;;;;;;;15.87;6.80;;;7.20;99.90;;;10.49;59.30;99002.38;5005208;28;20042;-55
2022/11/26 10:03:36;;;;;;;14.00;5.77;;;7.30;99.90;;;10.53;59.30;99002.97;5004891;28;20049;-55
2022/11/26 10:06:16;;;;;;;9.00;6.43;;;7.40;99.90;;;10.56;59.38;99013.34;5003693;28;20043;-55
2022/11/26 10:09:19;;;;;;;12.40;6.20;;;7.40;99.90;;;10.57;59.10;99010.56;5004020;28;20056;-51
2022/11/26 10:12:30;;;;;;;14.63;7.63;;;7.40;99.90;;;10.57;59.11;99015.88;5005037;28;20247;-56
2022/11/26 10:15:26;;;;;;;8.40;5.33;;;7.40;99.90;;;10.64;59.35;99009.09;4947906;29;20059;-54
2022/11/26 10:18:13;;;;;;;11.47;6.03;;;7.40;99.90;;;10.59;58.90;99011.28;5003897;28;20348;-54
2022/11/26 10:21:12;;;;;;;12.97;6.67;;;7.40;99.90;;;10.60;59.21;99009.44;5004454;28;20050;-55
2022/11/26 10:24:01;;;;;;;12.03;5.83;;;7.40;99.90;;;10.48;59.64;99005.16;5004410;28;20054;-51
2022/11/26 10:26:38;;;;;;;16.13;6.70;;;7.40;99.90;;;10.69;59.59;99008.69;5003727;28;20052;-53
2022/11/26 10:29:25;;;;;;;9.80;5.03;;;7.60;99.90;;;10.82;59.56;99005.84;5004846;28;20057;-53
2022/11/26 10:31:58;;;;;;;13.97;5.60;;;7.70;99.90;;;10.72;59.21;99005.78;5004948;28;20050;-54
2022/11/26 10:34:40;;;;;;;13.50;6.50;;;7.70;99.90;;;10.62;59.79;99010.16;5003458;28;20054;-56
2022/11/26 10:37:08;;;;;;;11.40;6.23;;;7.70;99.90;;;10.64;59.31;99008.22;5004370;28;20050;-55
2022/11/26 10:39:36;;;;;;;9.37;4.63;;;7.50;99.90;;;10.63;59.18;99002.06;5003540;28;20308;-55
2022/11/26 10:42:20;;;;;;;14.70;6.27;;;7.50;99.90;;;10.69;59.44;99007.84;5003689;28;20050;-54
2022/11/26 10:44:50;;;;;;;15.88;7.15;;;7.50;99.90;;;10.73;58.90;99007.44;5003131;28;20048;-55